Terminal Aerodrome Forecast
Issued by NWS Upton, NY

Current Version | Previous Version | Text Only | Print | Product List | Glossary On
Versions: 1 2 3 4 5 6 7 8 9 10 11 12 13 14 15 16 17 18 19 20 21 22 23 24 25 26 27 28 29 30 31 32
206
FTUS41 KOKX 301313 AAA
TAFBDR
TAF AMD
KBDR 301313Z 3013/0112 05016G23KT P6SM OVC025
     FM301600 05021G29KT 5SM -SHRA OVC015
     FM301900 05017G24KT 2SM -SHRA BR OVC012
     FM010300 04012G18KT 2SM -SHRA BR OVC009=

USA.gov is the U.S. government's official web portal to all federal, state and local government web resources and services.